Time;durP1;ratioP1;P1;durP2;ratioP2;P2;SDS_P1;SDS_P2;PMS_P1;PMS_P2;Temp;Humidity;BMP_temperature;BMP_pressure;BME280_temperature;BME280_humidity;BME280_pressure;Samples;Min_cycle;Max_cycle;Signal;HPM_P1;HPM_P2
2023/09/12 00:01:12;;;;;;;5.03;4.63;;;;;;;;;;5100147;28;20203;-64
2023/09/12 00:03:41;;;;;;;5.43;5.03;;;;;;;;;;5099905;28;20215;-64
2023/09/12 00:06:09;;;;;;;5.25;4.85;;;;;;;;;;5099794;28;20203;-64
2023/09/12 00:08:37;;;;;;;5.05;4.68;;;;;;;;;;5100122;28;20233;-64
2023/09/12 00:11:06;;;;;;;5.32;4.93;;;;;;;;;;5099978;28;20587;-64
2023/09/12 00:13:34;;;;;;;4.68;4.38;;;;;;;;;;5100070;28;20551;-64
2023/09/12 00:16:02;;;;;;;5.28;4.88;;;;;;;;;;5100057;28;20196;-64
2023/09/12 00:18:30;;;;;;;4.68;4.38;;;;;;;;;;5099910;28;20227;-64
2023/09/12 00:21:00;;;;;;;5.13;4.72;;;;;;;;;;5099998;28;20211;-64
2023/09/12 00:23:28;;;;;;;4.60;4.30;;;;;;;;;;5099935;28;20204;-64
2023/09/12 00:25:56;;;;;;;4.93;4.63;;;;;;;;;;5099836;28;20290;-64
2023/09/12 00:28:23;;;;;;;4.95;4.45;;;;;;;;;;5099643;28;20248;-63
2023/09/12 00:30:51;;;;;;;5.13;4.72;;;;;;;;;;5100021;28;20207;-63
2023/09/12 00:33:19;;;;;;;4.82;4.50;;;;;;;;;;5099376;28;20203;-63
2023/09/12 00:35:46;;;;;;;4.85;4.45;;;;;;;;;;5099509;28;20204;-63
2023/09/12 00:38:16;;;;;;;5.18;4.78;;;;;;;;;;5099698;28;20228;-63
2023/09/12 00:40:43;;;;;;;4.97;4.68;;;;;;;;;;5099766;28;20572;-63
2023/09/12 00:43:11;;;;;;;5.20;4.80;;;;;;;;;;5099909;28;20591;-64
2023/09/12 00:45:39;;;;;;;5.47;5.03;;;;;;;;;;5099122;28;20301;-64
2023/09/12 00:48:06;;;;;;;5.05;4.65;;;;;;;;;;5099542;28;20199;-64
2023/09/12 00:50:35;;;;;;;5.03;4.65;;;;;;;;;;5099053;28;20203;-64
2023/09/12 00:53:04;;;;;;;5.07;4.78;;;;;;;;;;5099511;28;20280;-64
2023/09/12 00:55:34;;;;;;;5.20;4.80;;;;;;;;;;5099370;28;20208;-64
2023/09/12 00:58:02;;;;;;;4.97;4.68;;;;;;;;;;5098966;28;20580;-64
2023/09/12 01:00:30;;;;;;;4.75;4.45;;;;;;;;;;5099316;28;20487;-64
2023/09/12 01:02:58;;;;;;;4.40;4.10;;;;;;;;;;5099389;28;20214;-64
2023/09/12 01:05:26;;;;;;;5.03;4.72;;;;;;;;;;5098976;28;20204;-64
2023/09/12 01:07:54;;;;;;;4.95;4.65;;;;;;;;;;5098888;28;20287;-64
2023/09/12 01:10:22;;;;;;;5.25;4.85;;;;;;;;;;5099181;28;20207;-63
2023/09/12 01:12:51;;;;;;;5.03;4.63;;;;;;;;;;5098769;28;20585;-63
2023/09/12 01:15:19;;;;;;;5.00;4.60;;;;;;;;;;5098845;28;20211;-63
2023/09/12 01:17:47;;;;;;;5.20;4.80;;;;;;;;;;5098949;28;20318;-63
2023/09/12 01:20:18;;;;;;;5.13;4.72;;;;;;;;;;5098943;28;20215;-63
2023/09/12 01:22:55;;;;;;;4.78;4.47;;;;;;;;;;5098951;28;20298;-64
2023/09/12 01:25:40;;;;;;;5.05;4.65;;;;;;;;;;5098509;28;20239;-64
2023/09/12 01:28:11;;;;;;;4.47;4.18;;;;;;;;;;5098575;28;20199;-64
2023/09/12 01:30:41;;;;;;;5.00;4.68;;;;;;;;;;5098913;28;20195;-64
2023/09/12 01:33:08;;;;;;;4.72;4.43;;;;;;;;;;5099018;28;20210;-64
2023/09/12 01:35:36;;;;;;;4.85;4.45;;;;;;;;;;5098730;28;20203;-64
2023/09/12 01:38:04;;;;;;;4.72;4.38;;;;;;;;;;5098878;28;20257;-64
2023/09/12 01:40:35;;;;;;;5.30;4.90;;;;;;;;;;5098401;28;20211;-63
2023/09/12 01:43:06;;;;;;;5.35;4.95;;;;;;;;;;5098306;28;20242;-63
2023/09/12 01:45:37;;;;;;;4.47;4.18;;;;;;;;;;5098388;28;20269;-63
2023/09/12 01:48:06;;;;;;;4.72;4.43;;;;;;;;;;5098596;28;20199;-63
2023/09/12 01:50:35;;;;;;;4.70;4.40;;;;;;;;;;5098345;28;20208;-63
2023/09/12 01:53:03;;;;;;;5.38;4.97;;;;;;;;;;5098392;28;20250;-63
2023/09/12 01:55:31;;;;;;;5.30;4.90;;;;;;;;;;5098517;28;20478;-63
2023/09/12 01:57:59;;;;;;;5.00;4.60;;;;;;;;;;5096717;28;20232;-63
2023/09/12 02:00:26;;;;;;;4.88;4.47;;;;;;;;;;5098856;28;20273;-63
2023/09/12 02:02:55;;;;;;;5.00;4.60;;;;;;;;;;5098097;28;20204;-63
2023/09/12 02:05:23;;;;;;;4.68;4.38;;;;;;;;;;5098021;28;20552;-63
2023/09/12 02:07:51;;;;;;;5.13;4.78;;;;;;;;;;5097912;28;20200;-63
2023/09/12 02:10:19;;;;;;;4.88;4.47;;;;;;;;;;5097681;28;20299;-63
2023/09/12 02:12:47;;;;;;;4.80;4.50;;;;;;;;;;5097788;28;20203;-63
2023/09/12 02:15:15;;;;;;;5.28;4.88;;;;;;;;;;5097906;28;20204;-63
2023/09/12 02:17:43;;;;;;;5.32;4.93;;;;;;;;;;5097878;28;20274;-65
2023/09/12 02:20:12;;;;;;;5.28;4.88;;;;;;;;;;5098137;28;20493;-64
2023/09/12 02:22:40;;;;;;;4.60;4.30;;;;;;;;;;5098134;28;20207;-64
2023/09/12 02:25:09;;;;;;;5.18;4.78;;;;;;;;;;5097951;28;20501;-64
2023/09/12 02:27:37;;;;;;;4.82;4.53;;;;;;;;;;5097901;28;20207;-64
2023/09/12 02:30:05;;;;;;;4.65;4.35;;;;;;;;;;5097851;28;20295;-64
2023/09/12 02:32:33;;;;;;;5.05;4.65;;;;;;;;;;5097469;28;20247;-64
2023/09/12 02:35:00;;;;;;;4.40;4.10;;;;;;;;;;5097624;28;20207;-64
2023/09/12 02:37:30;;;;;;;4.65;4.35;;;;;;;;;;5097599;28;20215;-64
2023/09/12 02:39:58;;;;;;;4.50;4.20;;;;;;;;;;5097729;28;20298;-64
2023/09/12 02:42:25;;;;;;;4.50;4.20;;;;;;;;;;5097495;28;20203;-64
2023/09/12 02:44:53;;;;;;;4.93;4.60;;;;;;;;;;5097446;28;20627;-64
2023/09/12 02:47:21;;;;;;;5.03;4.68;;;;;;;;;;5097468;28;20222;-63
2023/09/12 02:49:49;;;;;;;4.68;4.38;;;;;;;;;;5097098;28;20203;-63
2023/09/12 02:52:16;;;;;;;5.03;4.72;;;;;;;;;;5096577;28;20209;-63
2023/09/12 02:54:46;;;;;;;4.65;4.35;;;;;;;;;;5096732;28;20207;-63
2023/09/12 02:57:14;;;;;;;4.68;4.38;;;;;;;;;;5096543;28;20207;-63
2023/09/12 02:59:42;;;;;;;5.10;4.80;;;;;;;;;;5096823;28;20486;-63
2023/09/12 03:02:09;;;;;;;5.10;4.70;;;;;;;;;;5097099;28;20204;-64
2023/09/12 03:04:39;;;;;;;5.30;4.97;;;;;;;;;;5097404;28;20572;-63
2023/09/12 03:07:06;;;;;;;5.00;4.60;;;;;;;;;;5096964;28;20207;-63
2023/09/12 03:09:34;;;;;;;4.80;4.40;;;;;;;;;;5099089;28;20199;-63
2023/09/12 03:12:04;;;;;;;4.78;4.47;;;;;;;;;;5101314;28;20203;-63
2023/09/12 03:14:32;;;;;;;4.60;4.30;;;;;;;;;;5101461;28;20212;-63
2023/09/12 03:16:59;;;;;;;4.85;4.55;;;;;;;;;;5100809;28;20211;-63
2023/09/12 03:19:26;;;;;;;5.03;4.63;;;;;;;;;;5100672;28;20233;-63
2023/09/12 03:21:54;;;;;;;5.00;4.60;;;;;;;;;;5100858;28;20622;-63
2023/09/12 03:24:24;;;;;;;4.68;4.38;;;;;;;;;;5100772;28;20207;-63
2023/09/12 03:26:52;;;;;;;4.70;4.40;;;;;;;;;;5100862;28;20226;-63
2023/09/12 03:29:20;;;;;;;4.90;4.50;;;;;;;;;;5101143;28;20483;-63
2023/09/12 03:31:48;;;;;;;4.85;4.45;;;;;;;;;;5101011;28;20689;-63
2023/09/12 03:34:15;;;;;;;5.53;5.13;;;;;;;;;;5100436;28;20214;-63
2023/09/12 03:36:43;;;;;;;5.05;4.57;;;;;;;;;;5100650;28;20261;-63
2023/09/12 03:39:13;;;;;;;4.82;4.43;;;;;;;;;;5100231;28;20227;-63
2023/09/12 03:41:40;;;;;;;5.07;4.68;;;;;;;;;;5100890;28;20226;-64
2023/09/12 03:44:08;;;;;;;4.53;4.22;;;;;;;;;;5100468;28;20610;-64
2023/09/12 03:46:37;;;;;;;4.88;4.55;;;;;;;;;;5100774;28;20234;-64
2023/09/12 03:49:04;;;;;;;4.72;4.43;;;;;;;;;;5100267;28;20610;-64
2023/09/12 03:51:32;;;;;;;4.82;4.43;;;;;;;;;;5099693;28;20576;-64
2023/09/12 03:53:59;;;;;;;4.43;4.13;;;;;;;;;;5099724;28;20239;-64
2023/09/12 03:56:27;;;;;;;4.57;4.25;;;;;;;;;;5100056;28;20626;-64
2023/09/12 03:58:57;;;;;;;4.35;4.05;;;;;;;;;;5099823;28;20533;-64
2023/09/12 04:01:25;;;;;;;4.90;4.60;;;;;;;;;;5099718;28;20214;-64
2023/09/12 04:03:54;;;;;;;4.70;4.32;;;;;;;;;;5099313;28;20264;-64
2023/09/12 04:06:21;;;;;;;4.65;4.35;;;;;;;;;;5099411;28;20239;-64
2023/09/12 04:08:49;;;;;;;5.15;4.75;;;;;;;;;;5099693;28;20225;-64
2023/09/12 04:11:16;;;;;;;5.22;4.82;;;;;;;;;;5099783;28;20207;-64
2023/09/12 04:13:44;;;;;;;4.93;4.53;;;;;;;;;;5099779;28;20238;-64
2023/09/12 04:16:11;;;;;;;4.85;4.55;;;;;;;;;;5099359;28;20204;-64
2023/09/12 04:18:39;;;;;;;4.50;4.20;;;;;;;;;;5098845;28;20776;-64
2023/09/12 04:21:07;;;;;;;5.00;4.65;;;;;;;;;;5097686;28;20204;-64
2023/09/12 04:23:35;;;;;;;4.80;4.50;;;;;;;;;;5098289;28;20250;-64
2023/09/12 04:26:03;;;;;;;4.82;4.53;;;;;;;;;;5099244;28;20203;-64
2023/09/12 04:28:30;;;;;;;4.47;4.18;;;;;;;;;;5099224;28;20199;-64
2023/09/12 04:31:07;;;;;;;4.70;4.40;;;;;;;;;;5098793;28;20243;-64
2023/09/12 04:33:34;;;;;;;4.38;4.07;;;;;;;;;;5098478;28;20211;-64
2023/09/12 04:36:02;;;;;;;4.85;4.55;;;;;;;;;;5098567;28;20238;-64
2023/09/12 04:38:32;;;;;;;5.00;4.47;;;;;;;;;;5097796;28;20230;-64
2023/09/12 04:41:04;;;;;;;4.70;4.30;;;;;;;;;;5097713;28;20214;-64
2023/09/12 04:43:31;;;;;;;4.97;4.57;;;;;;;;;;5097507;28;20204;-64
2023/09/12 04:45:59;;;;;;;4.88;4.47;;;;;;;;;;5097209;28;20227;-64
2023/09/12 04:48:27;;;;;;;4.93;4.53;;;;;;;;;;5098105;28;20614;-63
2023/09/12 04:50:54;;;;;;;5.00;4.60;;;;;;;;;;5096588;28;20208;-63
2023/09/12 04:53:21;;;;;;;4.72;4.43;;;;;;;;;;5097142;28;20206;-63
2023/09/12 04:55:50;;;;;;;5.10;4.70;;;;;;;;;;5097382;28;20239;-63
2023/09/12 04:58:18;;;;;;;5.18;4.78;;;;;;;;;;5096470;28;20236;-64
2023/09/12 05:00:45;;;;;;;5.10;4.70;;;;;;;;;;5096037;28;20207;-64
2023/09/12 05:03:13;;;;;;;5.00;4.70;;;;;;;;;;5096000;28;20235;-64
2023/09/12 05:05:40;;;;;;;4.82;4.53;;;;;;;;;;5095931;28;20203;-64
2023/09/12 05:08:07;;;;;;;4.47;4.18;;;;;;;;;;5095539;28;20607;-64
2023/09/12 05:10:35;;;;;;;4.90;4.50;;;;;;;;;;5095255;28;20235;-63
2023/09/12 05:13:04;;;;;;;4.97;4.57;;;;;;;;;;5095301;28;20207;-63
2023/09/12 05:15:32;;;;;;;4.63;4.32;;;;;;;;;;5095482;28;20246;-63
2023/09/12 05:17:59;;;;;;;5.18;4.78;;;;;;;;;;5095119;28;20201;-63
2023/09/12 05:20:26;;;;;;;4.85;4.45;;;;;;;;;;5094615;28;20227;-63
2023/09/12 05:22:54;;;;;;;4.63;4.32;;;;;;;;;;5095233;28;20598;-63
2023/09/12 05:25:21;;;;;;;4.70;4.40;;;;;;;;;;5096089;28;20500;-63
2023/09/12 05:27:49;;;;;;;5.13;4.72;;;;;;;;;;5095808;28;20238;-63
2023/09/12 05:30:18;;;;;;;4.82;4.53;;;;;;;;;;5095857;28;20192;-64
2023/09/12 05:32:45;;;;;;;5.05;4.65;;;;;;;;;;5095541;28;20243;-64
2023/09/12 05:35:13;;;;;;;4.40;4.10;;;;;;;;;;5095733;28;20562;-64
2023/09/12 05:37:40;;;;;;;4.68;4.38;;;;;;;;;;5095572;28;20308;-64
2023/09/12 05:40:09;;;;;;;4.55;4.25;;;;;;;;;;5095772;28;20216;-64
2023/09/12 05:42:37;;;;;;;5.20;4.80;;;;;;;;;;5096291;28;20286;-64
2023/09/12 05:45:05;;;;;;;4.47;4.18;;;;;;;;;;5095696;28;20266;-63
2023/09/12 05:47:34;;;;;;;4.75;4.45;;;;;;;;;;5095170;28;20326;-63
2023/09/12 05:50:04;;;;;;;4.75;4.45;;;;;;;;;;5095469;28;20225;-63
2023/09/12 05:52:32;;;;;;;4.50;4.10;;;;;;;;;;5095478;28;20203;-63
2023/09/12 05:54:59;;;;;;;4.78;4.47;;;;;;;;;;5095117;28;20490;-63
2023/09/12 05:57:27;;;;;;;4.80;4.40;;;;;;;;;;5093642;28;20259;-63
2023/09/12 05:59:54;;;;;;;4.88;4.47;;;;;;;;;;5095396;28;20270;-64
2023/09/12 06:02:21;;;;;;;4.90;4.60;;;;;;;;;;5094475;28;20209;-64
2023/09/12 06:04:50;;;;;;;5.00;4.63;;;;;;;;;;5093547;28;20589;-64
2023/09/12 06:07:18;;;;;;;4.85;4.47;;;;;;;;;;5094251;28;20243;-63
2023/09/12 06:09:45;;;;;;;5.10;4.70;;;;;;;;;;5094433;28;20703;-64
2023/09/12 06:12:12;;;;;;;5.20;4.80;;;;;;;;;;5094227;28;20310;-64
2023/09/12 06:14:40;;;;;;;4.57;4.28;;;;;;;;;;5094309;28;20214;-64
2023/09/12 06:17:07;;;;;;;4.93;4.60;;;;;;;;;;5094125;28;20210;-63
2023/09/12 06:19:35;;;;;;;4.75;4.45;;;;;;;;;;5094084;28;20317;-64
2023/09/12 06:22:03;;;;;;;5.20;4.80;;;;;;;;;;5095378;28;20235;-64
2023/09/12 06:24:31;;;;;;;4.55;4.25;;;;;;;;;;5076647;28;20262;-64
2023/09/12 06:26:58;;;;;;;4.80;4.50;;;;;;;;;;5057250;28;20252;-64
2023/09/12 06:29:26;;;;;;;5.45;5.05;;;;;;;;;;5074511;28;20294;-64
2023/09/12 06:31:54;;;;;;;4.80;4.47;;;;;;;;;;5065031;28;20262;-64
2023/09/12 06:34:22;;;;;;;5.07;4.68;;;;;;;;;;5074389;28;20302;-64
2023/09/12 06:36:49;;;;;;;5.22;4.82;;;;;;;;;;5064364;28;20293;-64
2023/09/12 06:39:18;;;;;;;4.82;4.53;;;;;;;;;;5054230;28;20217;-63
2023/09/12 06:41:46;;;;;;;4.90;4.50;;;;;;;;;;5054556;28;20248;-63
2023/09/12 06:44:13;;;;;;;5.07;4.70;;;;;;;;;;5054458;28;20211;-63
2023/09/12 06:46:41;;;;;;;5.18;4.78;;;;;;;;;;5055466;28;20248;-63
2023/09/12 06:49:08;;;;;;;4.90;4.50;;;;;;;;;;5054828;28;20558;-63
2023/09/12 06:51:36;;;;;;;5.05;4.65;;;;;;;;;;5055782;28;20217;-63
2023/09/12 06:54:03;;;;;;;5.03;4.63;;;;;;;;;;5054999;28;20608;-64
2023/09/12 06:56:37;;;;;;;5.13;4.72;;;;;;;;;;5055149;28;20212;-64
2023/09/12 06:59:04;;;;;;;5.15;4.75;;;;;;;;;;5054107;28;20237;-64
2023/09/12 07:01:32;;;;;;;4.90;4.60;;;;;;;;;;5055121;28;20274;-64
2023/09/12 07:03:59;;;;;;;5.05;4.75;;;;;;;;;;5053860;28;20205;-64
2023/09/12 07:06:27;;;;;;;4.95;4.55;;;;;;;;;;5054863;28;20212;-64
2023/09/12 07:08:54;;;;;;;5.00;4.63;;;;;;;;;;5054204;28;20267;-64
2023/09/12 07:11:24;;;;;;;5.45;4.95;;;;;;;;;;5055239;28;20296;-64
2023/09/12 07:13:52;;;;;;;5.72;5.22;;;;;;;;;;5054160;28;20291;-64
2023/09/12 07:16:20;;;;;;;5.47;5.07;;;;;;;;;;5053593;28;20295;-64
2023/09/12 07:18:47;;;;;;;5.35;4.95;;;;;;;;;;5053614;28;20493;-63
2023/09/12 07:21:15;;;;;;;5.63;5.10;;;;;;;;;;5054872;28;20227;-63
2023/09/12 07:23:42;;;;;;;5.60;5.05;;;;;;;;;;5054124;28;20201;-63
2023/09/12 07:26:13;;;;;;;5.38;4.97;;;;;;;;;;5055024;28;20263;-63
2023/09/12 07:28:41;;;;;;;5.20;4.80;;;;;;;;;;5054188;28;20263;-63
2023/09/12 07:31:10;;;;;;;5.00;4.70;;;;;;;;;;5054546;28;20308;-63
2023/09/12 07:33:38;;;;;;;4.90;4.60;;;;;;;;;;5054234;28;20205;-63
2023/09/12 07:36:05;;;;;;;4.90;4.50;;;;;;;;;;5054710;28;20296;-63
2023/09/12 07:38:35;;;;;;;5.20;4.80;;;;;;;;;;5053726;28;20204;-63
2023/09/12 07:41:02;;;;;;;5.10;4.70;;;;;;;;;;5053766;28;20318;-63
2023/09/12 07:43:30;;;;;;;5.20;4.80;;;;;;;;;;5054329;28;20205;-63
2023/09/12 07:45:58;;;;;;;5.40;5.00;;;;;;;;;;5054496;28;20201;-63
2023/09/12 07:48:27;;;;;;;4.78;4.47;;;;;;;;;;5053876;28;20205;-64
2023/09/12 07:50:55;;;;;;;4.90;4.60;;;;;;;;;;5054248;28;20263;-63
2023/09/12 07:53:23;;;;;;;5.20;4.80;;;;;;;;;;5054797;28;20270;-63
2023/09/12 07:55:50;;;;;;;5.38;4.97;;;;;;;;;;5053929;28;20205;-63
2023/09/12 07:58:19;;;;;;;4.85;4.55;;;;;;;;;;5058235;28;20653;-63
2023/09/12 08:00:46;;;;;;;5.35;4.95;;;;;;;;;;5058014;28;20228;-63
2023/09/12 08:03:14;;;;;;;5.15;4.75;;;;;;;;;;5058323;28;20237;-63
2023/09/12 08:05:42;;;;;;;5.13;4.72;;;;;;;;;;5058049;28;20251;-63
2023/09/12 08:08:10;;;;;;;4.82;4.45;;;;;;;;;;5056868;28;20204;-63
2023/09/12 08:10:38;;;;;;;5.05;4.65;;;;;;;;;;5057324;28;20298;-63
2023/09/12 08:13:05;;;;;;;4.88;4.57;;;;;;;;;;5057049;28;20205;-63
2023/09/12 08:15:35;;;;;;;4.80;4.50;;;;;;;;;;5057088;28;20595;-63
2023/09/12 08:18:02;;;;;;;4.70;4.40;;;;;;;;;;5057391;28;20205;-64
2023/09/12 08:20:29;;;;;;;4.93;4.53;;;;;;;;;;5057146;28;20581;-64
2023/09/12 08:22:58;;;;;;;4.65;4.32;;;;;;;;;;5058232;28;20233;-64
2023/09/12 08:25:26;;;;;;;4.78;4.47;;;;;;;;;;5056126;28;20201;-64
2023/09/12 08:27:54;;;;;;;4.90;4.50;;;;;;;;;;5055117;28;20605;-63
2023/09/12 08:30:21;;;;;;;4.78;4.47;;;;;;;;;;5056451;28;20223;-63
2023/09/12 08:32:49;;;;;;;4.63;4.32;;;;;;;;;;5056446;28;20211;-63
2023/09/12 08:35:16;;;;;;;5.03;4.72;;;;;;;;;;5057076;28;20197;-63
2023/09/12 08:37:44;;;;;;;5.63;5.22;;;;;;;;;;5057152;28;20209;-63
2023/09/12 08:40:13;;;;;;;4.95;4.60;;;;;;;;;;5055456;28;20231;-63
2023/09/12 08:42:41;;;;;;;4.80;4.50;;;;;;;;;;5057069;28;20209;-63
2023/09/12 08:45:13;;;;;;;5.05;4.68;;;;;;;;;;5057412;28;20296;-63
2023/09/12 08:47:42;;;;;;;5.43;5.03;;;;;;;;;;5056449;28;20240;-63
2023/09/12 08:50:13;;;;;;;5.43;5.03;;;;;;;;;;5055834;28;20217;-64
2023/09/12 08:52:40;;;;;;;5.30;4.90;;;;;;;;;;5056209;28;20205;-63
2023/09/12 08:55:08;;;;;;;5.80;5.40;;;;;;;;;;5055735;28;20304;-63
2023/09/12 08:57:37;;;;;;;6.38;5.88;;;;;;;;;;5055381;28;20237;-63
2023/09/12 09:00:06;;;;;;;6.38;5.88;;;;;;;;;;5056132;28;20260;-63
2023/09/12 09:02:34;;;;;;;6.85;6.30;;;;;;;;;;5056397;28;20231;-63
2023/09/12 09:05:04;;;;;;;6.50;6.00;;;;;;;;;;5056696;28;20756;-63
2023/09/12 09:07:34;;;;;;;6.28;5.78;;;;;;;;;;5055527;28;20204;-63
2023/09/12 09:10:03;;;;;;;6.63;6.13;;;;;;;;;;5055840;28;20584;-63
2023/09/12 09:12:30;;;;;;;6.90;6.35;;;;;;;;;;5055944;28;20204;-63
2023/09/12 09:14:59;;;;;;;6.80;6.20;;;;;;;;;;5056136;28;20295;-63
2023/09/12 09:17:28;;;;;;;7.10;6.60;;;;;;;;;;5056018;28;20235;-63
2023/09/12 09:19:55;;;;;;;6.90;6.30;;;;;;;;;;5055269;28;20292;-64
2023/09/12 09:22:23;;;;;;;7.35;6.75;;;;;;;;;;5055200;28;20211;-63
2023/09/12 09:24:51;;;;;;;7.95;7.35;;;;;;;;;;5056319;28;20236;-63
2023/09/12 09:27:35;;;;;;;7.43;6.80;;;;;;;;;;5055909;28;20205;-63
2023/09/12 09:30:04;;;;;;;7.28;6.78;;;;;;;;;;5055454;28;20193;-63
2023/09/12 09:32:31;;;;;;;7.88;7.28;;;;;;;;;;5055133;28;20209;-63
2023/09/12 09:34:59;;;;;;;8.30;7.60;;;;;;;;;;5054688;28;20228;-63
2023/09/12 09:37:26;;;;;;;8.02;7.43;;;;;;;;;;5055173;28;20205;-63
2023/09/12 09:39:55;;;;;;;7.57;6.97;;;;;;;;;;5054666;28;20315;-63
2023/09/12 09:42:24;;;;;;;8.23;7.60;;;;;;;;;;5055388;28;20503;-64
2023/09/12 09:44:51;;;;;;;7.95;7.25;;;;;;;;;;5055287;28;20205;-63
2023/09/12 09:47:21;;;;;;;7.53;6.90;;;;;;;;;;5055268;28;20219;-63
2023/09/12 09:49:48;;;;;;;7.50;6.90;;;;;;;;;;5056750;28;20204;-63
2023/09/12 09:52:15;;;;;;;7.88;7.18;;;;;;;;;;5054989;28;20208;-63
2023/09/12 09:54:45;;;;;;;7.97;7.20;;;;;;;;;;5054761;28;20203;-63
2023/09/12 09:57:13;;;;;;;8.20;7.50;;;;;;;;;;5054409;28;20604;-63
2023/09/12 09:59:41;;;;;;;8.32;7.43;;;;;;;;;;5055159;28;20205;-64
2023/09/12 10:02:11;;;;;;;8.27;7.47;;;;;;;;;;5054799;28;20240;-64
2023/09/12 10:04:40;;;;;;;8.57;7.88;;;;;;;;;;5054529;28;20211;-64
2023/09/12 10:07:08;;;;;;;8.20;7.60;;;;;;;;;;5070740;28;20204;-64
2023/09/12 10:09:36;;;;;;;8.68;7.88;;;;;;;;;;5074838;28;20251;-64
2023/09/12 10:12:04;;;;;;;9.02;8.13;;;;;;;;;;5074549;28;20287;-64
2023/09/12 10:14:32;;;;;;;8.43;7.70;;;;;;;;;;5075186;28;20227;-64
2023/09/12 10:17:02;;;;;;;8.95;8.05;;;;;;;;;;5074496;28;20197;-64
2023/09/12 10:19:33;;;;;;;8.63;7.90;;;;;;;;;;5072131;28;20208;-64
2023/09/12 10:22:06;;;;;;;9.40;8.50;;;;;;;;;;5073571;28;20740;-64
2023/09/12 10:24:34;;;;;;;9.45;8.55;;;;;;;;;;5074902;28;20235;-64
2023/09/12 10:27:02;;;;;;;9.63;8.82;;;;;;;;;;5073745;28;20239;-64
2023/09/12 10:29:30;;;;;;;9.25;8.40;;;;;;;;;;5073604;28;20212;-64
2023/09/12 10:31:58;;;;;;;9.43;8.52;;;;;;;;;;5073864;28;20200;-64
2023/09/12 10:34:26;;;;;;;9.60;8.57;;;;;;;;;;5073686;28;20196;-64
2023/09/12 10:36:54;;;;;;;9.02;8.32;;;;;;;;;;5073537;28;20204;-64
2023/09/12 10:39:24;;;;;;;8.90;8.10;;;;;;;;;;5073795;28;20207;-64
2023/09/12 10:41:53;;;;;;;8.98;8.18;;;;;;;;;;5073139;28;20223;-64
2023/09/12 10:44:21;;;;;;;10.00;8.63;;;;;;;;;;5073277;28;20212;-64
2023/09/12 10:46:49;;;;;;;8.25;7.65;;;;;;;;;;5074650;28;20597;-64
2023/09/12 10:49:17;;;;;;;10.05;8.30;;;;;;;;;;5073627;28;20485;-64
2023/09/12 10:51:45;;;;;;;9.88;8.98;;;;;;;;;;5063358;28;20593;-64
2023/09/12 10:54:15;;;;;;;9.60;8.77;;;;;;;;;;5053493;28;20266;-64
2023/09/12 10:56:50;;;;;;;9.35;8.45;;;;;;;;;;5053911;28;20205;-64
2023/09/12 10:59:17;;;;;;;8.85;8.05;;;;;;;;;;5053896;28;20350;-64
2023/09/12 11:01:46;;;;;;;8.73;7.88;;;;;;;;;;5053240;28;20286;-64
2023/09/12 11:04:34;;;;;;;8.63;7.80;;;;;;;;;;5054508;28;20203;-64
2023/09/12 11:07:02;;;;;;;8.75;7.85;;;;;;;;;;5053952;28;20204;-64
2023/09/12 11:09:29;;;;;;;8.23;7.47;;;;;;;;;;5053795;28;20215;-64
2023/09/12 11:11:59;;;;;;;7.93;7.22;;;;;;;;;;5054010;28;20619;-64
2023/09/12 11:14:27;;;;;;;7.90;7.20;;;;;;;;;;5054310;28;20589;-63
2023/09/12 11:17:13;;;;;;;8.25;7.50;;;;;;;;;;5053362;28;20646;-65
2023/09/12 11:19:45;;;;;;;8.15;7.35;;;;;;;;;;5053987;28;20592;-64
2023/09/12 11:22:23;;;;;;;8.02;7.00;;;;;;;;;;5053359;28;20264;-64
2023/09/12 11:24:50;;;;;;;7.22;6.63;;;;;;;;;;5054182;28;20209;-64
2023/09/12 11:27:19;;;;;;;7.82;7.13;;;;;;;;;;5053615;28;20875;-64
2023/09/12 11:29:47;;;;;;;7.47;6.85;;;;;;;;;;5053610;28;20209;-64
2023/09/12 11:32:27;;;;;;;7.00;6.35;;;;;;;;;;5057796;28;20304;-64
2023/09/12 11:34:55;;;;;;;7.68;6.70;;;;;;;;;;5057487;28;20204;-64
2023/09/12 11:37:26;;;;;;;7.55;6.78;;;;;;;;;;5056294;28;20205;-64
2023/09/12 11:39:55;;;;;;;7.60;6.90;;;;;;;;;;5057861;28;20543;-64
2023/09/12 11:42:25;;;;;;;7.90;6.97;;;;;;;;;;5056188;28;20235;-64
2023/09/12 11:44:53;;;;;;;7.60;6.88;;;;;;;;;;5056557;28;20235;-64
2023/09/12 11:47:21;;;;;;;7.07;6.55;;;;;;;;;;5056976;28;20223;-64
2023/09/12 11:49:48;;;;;;;7.63;6.93;;;;;;;;;;5056403;28;20205;-64
2023/09/12 11:52:17;;;;;;;7.70;6.90;;;;;;;;;;5056243;28;20209;-64
2023/09/12 11:54:46;;;;;;;7.68;6.90;;;;;;;;;;5056695;28;20215;-64
2023/09/12 11:57:14;;;;;;;7.78;6.55;;;;;;;;;;5056385;28;20307;-64
2023/09/12 11:59:45;;;;;;;7.07;6.38;;;;;;;;;;5057682;28;20215;-64
2023/09/12 12:02:12;;;;;;;7.55;6.85;;;;;;;;;;5056986;28;20635;-64
2023/09/12 12:04:40;;;;;;;7.07;6.28;;;;;;;;;;5056685;28;20262;-64
2023/09/12 12:07:08;;;;;;;8.00;6.60;;;;;;;;;;5056934;28;20271;-64
2023/09/12 12:09:36;;;;;;;6.78;6.18;;;;;;;;;;5057202;28;20296;-64
2023/09/12 12:12:10;;;;;;;9.02;6.75;;;;;;;;;;5057115;28;20205;-64
2023/09/12 12:14:38;;;;;;;7.53;6.82;;;;;;;;;;5057379;28;20244;-64
2023/09/12 12:17:10;;;;;;;7.38;6.65;;;;;;;;;;5057416;28;20538;-64
2023/09/12 12:19:38;;;;;;;6.55;5.95;;;;;;;;;;5056581;28;20205;-64
2023/09/12 12:22:07;;;;;;;7.22;6.55;;;;;;;;;;5056266;28;20332;-64
2023/09/12 12:24:41;;;;;;;6.78;6.10;;;;;;;;;;5055537;28;20303;-64
2023/09/12 12:27:10;;;;;;;6.95;6.30;;;;;;;;;;5055536;28;20522;-64
2023/09/12 12:29:39;;;;;;;7.10;6.40;;;;;;;;;;5056923;28;20288;-64
2023/09/12 12:32:08;;;;;;;6.80;6.20;;;;;;;;;;5055098;28;20201;-64
2023/09/12 12:34:38;;;;;;;6.85;6.20;;;;;;;;;;5053756;28;20483;-64
2023/09/12 12:37:05;;;;;;;6.65;6.05;;;;;;;;;;5054370;28;20205;-64
2023/09/12 12:39:34;;;;;;;6.97;6.22;;;;;;;;;;5054608;28;20240;-64
2023/09/12 12:42:03;;;;;;;7.18;6.47;;;;;;;;;;5054867;28;20232;-64
2023/09/12 12:44:40;;;;;;;7.32;6.63;;;;;;;;;;5055189;28;20296;-65
2023/09/12 12:47:08;;;;;;;7.93;6.50;;;;;;;;;;5054584;28;20212;-64
2023/09/12 12:49:40;;;;;;;7.25;6.55;;;;;;;;;;5055453;28;20205;-64
2023/09/12 12:52:07;;;;;;;6.55;6.05;;;;;;;;;;5055703;28;20201;-64
2023/09/12 12:54:35;;;;;;;6.88;6.10;;;;;;;;;;5055402;28;20213;-67
2023/09/12 12:57:03;;;;;;;6.78;6.10;;;;;;;;;;5055572;28;20255;-66
2023/09/12 12:59:34;;;;;;;6.93;6.25;;;;;;;;;;5056293;28;20236;-66
2023/09/12 13:02:02;;;;;;;7.13;6.43;;;;;;;;;;5055540;28;20229;-66
2023/09/12 13:04:36;;;;;;;6.95;6.25;;;;;;;;;;5054694;28;20205;-66
2023/09/12 13:07:05;;;;;;;7.05;6.25;;;;;;;;;;5055203;28;20201;-66
2023/09/12 13:09:33;;;;;;;7.78;6.45;;;;;;;;;;5055128;28;20225;-66
2023/09/12 13:12:00;;;;;;;7.18;6.57;;;;;;;;;;5054876;28;20229;-66
2023/09/12 13:14:30;;;;;;;7.15;6.45;;;;;;;;;;5053314;28;20248;-67
2023/09/12 13:16:58;;;;;;;10.35;6.47;;;;;;;;;;5054515;28;20266;-66
2023/09/12 13:19:26;;;;;;;7.18;6.47;;;;;;;;;;5055072;28;20212;-66
2023/09/12 13:21:53;;;;;;;8.93;6.97;;;;;;;;;;5054773;28;20228;-66
2023/09/12 13:24:23;;;;;;;6.97;6.28;;;;;;;;;;5054374;28;20303;-66
2023/09/12 13:26:50;;;;;;;9.80;6.63;;;;;;;;;;5054699;28;20197;-67
2023/09/12 13:29:17;;;;;;;7.00;6.40;;;;;;;;;;5055473;28;20205;-67
2023/09/12 13:31:45;;;;;;;7.18;6.47;;;;;;;;;;5054559;28;20205;-67
2023/09/12 13:34:12;;;;;;;8.82;7.22;;;;;;;;;;5055026;28;20307;-66
2023/09/12 13:36:40;;;;;;;7.47;6.63;;;;;;;;;;5054428;28;20287;-66
2023/09/12 13:39:08;;;;;;;7.65;6.78;;;;;;;;;;5054721;28;20205;-66
2023/09/12 13:41:39;;;;;;;7.93;6.40;;;;;;;;;;5053463;28;20256;-67
2023/09/12 13:44:06;;;;;;;8.25;6.60;;;;;;;;;;5054803;28;20274;-66
2023/09/12 13:46:34;;;;;;;7.18;6.57;;;;;;;;;;5054030;28;20228;-68
2023/09/12 13:49:03;;;;;;;7.30;6.43;;;;;;;;;;5054159;28;20781;-67
2023/09/12 13:51:30;;;;;;;8.45;6.57;;;;;;;;;;5053905;28;20209;-67
2023/09/12 13:53:58;;;;;;;7.78;6.70;;;;;;;;;;5054155;28;20231;-67
2023/09/12 13:56:25;;;;;;;7.05;6.35;;;;;;;;;;5053480;28;20203;-67
2023/09/12 13:58:54;;;;;;;7.25;6.55;;;;;;;;;;5054571;28;20298;-67
2023/09/12 14:01:23;;;;;;;7.70;6.32;;;;;;;;;;5053348;28;20234;-67
2023/09/12 14:03:50;;;;;;;7.75;6.95;;;;;;;;;;5053446;28;20216;-67
2023/09/12 14:06:18;;;;;;;7.70;6.68;;;;;;;;;;5053706;28;20576;-67
2023/09/12 14:08:45;;;;;;;7.55;6.72;;;;;;;;;;5054528;28;20208;-67
2023/09/12 14:11:12;;;;;;;7.35;6.50;;;;;;;;;;5053986;28;20640;-67
2023/09/12 14:13:40;;;;;;;8.88;7.22;;;;;;;;;;5053480;28;20205;-67
2023/09/12 14:16:09;;;;;;;7.63;6.55;;;;;;;;;;5053631;28;20549;-67
2023/09/12 14:18:37;;;;;;;6.90;6.20;;;;;;;;;;5054211;28;20204;-67
2023/09/12 14:21:04;;;;;;;6.65;6.05;;;;;;;;;;5054264;28;20644;-67
2023/09/12 14:23:32;;;;;;;7.85;6.20;;;;;;;;;;5053571;28;20311;-67
2023/09/12 14:25:59;;;;;;;6.53;5.93;;;;;;;;;;5054215;28;20779;-67
2023/09/12 14:28:28;;;;;;;6.50;5.90;;;;;;;;;;5054527;28;20204;-67
2023/09/12 14:30:56;;;;;;;6.85;6.15;;;;;;;;;;5054047;28;20205;-67
2023/09/12 14:33:25;;;;;;;7.38;6.13;;;;;;;;;;5053575;28;20266;-67
2023/09/12 14:35:52;;;;;;;7.30;5.97;;;;;;;;;;5053874;28;20205;-67
2023/09/12 14:38:19;;;;;;;7.25;6.35;;;;;;;;;;5053212;28;20307;-67
2023/09/12 14:40:47;;;;;;;8.05;6.70;;;;;;;;;;5052487;28;20322;-67
2023/09/12 14:43:15;;;;;;;7.55;6.75;;;;;;;;;;5053075;28;20232;-67
2023/09/12 14:45:42;;;;;;;7.72;6.70;;;;;;;;;;5052751;28;20209;-67
2023/09/12 14:48:10;;;;;;;6.90;6.25;;;;;;;;;;5053372;28;20601;-67
2023/09/12 14:50:38;;;;;;;7.20;6.50;;;;;;;;;;5052536;28;20229;-67